MET193 - Los Angeles to Hong Kong

Airbus A330-243
162EP
15 hrs 15 mins
6305 nm
Scheduled - M | TU | W | TH | F | SA

Bid/PiRep Status

Bid was submitted on Jan 01 2017.

PiRep # 74556: Approved by Dave Nichols on January 2nd, 2017 2:56 UTC

Departure

Departing from
Los Angeles (LAX)
Departure gate
Scheduled Departure
GMT 0900
Local 0100
METAR KLAX 260453Z 27012KT 10SM SCT021 SCT030 BKN180 12/04 A3002 RMK AO2 SLP166 T01170044
TAF KLAX 260258Z 2603/2706 27010KT P6SM BKN100 FM260900 06005KT P6SM -SHRA BKN030 OVC050 FM261300 09008KT 5SM -RA BR BKN010 OVC021 FM261700 14005KT P6SM -SHRA SCT015 BKN025 FM262000 18007KT P6SM VCSH BKN020 BKN040 FM270500 19007KT 5SM BR VCSH BKN015 OVC030
  • No charts available

Arrival

Arriving at
Hong Kong (HKG)
Arrival gate
Terminal 1
Scheduled Arrival
GMT 0015
Local 0815
METAR VHHH 260500Z 32007KT 9999 FEW015 SCT045 14/08 Q1021 NOSIG
TAF TAF VHHH 252300Z 2600/2706 02010KT 7000 FEW010 SCT020 TX16/2606Z TX19/2706Z TN11/2600Z TEMPO 2600/2603 4000 BR -RA TEMPO 2600/2609 32010KT TEMPO 2609/2620 08010KT BECMG 2620/2622 08010KT TEMPO 2703/2706 32010KT

Route Map

Planning Resources

KONT SLI J134 LAX J5 LANDO J50 EHF J5 YVR J590 YZT J523 YZP TRK18 KATCH B757 MARLO J123 ODK R341 NATES R220 GOC W18 KINPU Y88 SENJO W18 NAKTU V58 XMC V17 LABEL Y50 KOSHI A1 APU W4 HLG A1 ELATO J101 PONTI VHHH
POM7 PMD V197 AMONT V459 FRA V332 RBL J1 OED J501 TOU J523 YZP TR19 FRIED J804R MDO J179 ENM G583 BALUB B804 GIRAN B962 DITOR B233 NULAR B467 TENAS A586 CJU B576 SALMI L1 KADLO A1 ELATO STAR VHHH
VTU5 RZS LIBBO BRINY ALCOA CEPAS COBAD 4100N 1400W 4300N 1500W 4500N 1600W4700N 1800E 4600N 1600E KALNA OTR5 ADNAP OTR5 PABBA A590 MJE A1 RUSAR A1 APU MKG A1 ELATO V521 ABBEY
PMD ROBIE K SEALS YKE PLT
HASSA5 PMD J65 LANDO J50 EHF J5 YVR J590 YZT J523 YZP TRK18 KATCH B757 MARLO J123 ODK R341 NATES R220 GOC W18 KINPU Y88 SENJO W18 NAKTU V58 XMC V17 LABEL Y50 KOSHI A1 APU W4 HLG A1 ELATO J101 TUBBY DOTM5A 26DME CI07R 55IFL LC
Route:
OFP Layout:
Units:
Detailed Navlog:
ETOPS Planning:
Plan Stepclimbs:
Runway Analysis:
Include NOTAMS:
FIR NOTAMS:
Flight Maps:

Return Flights

MET184
Boeing 777-300ER
1200 GMT
MET194
Airbus A330-243
0145 GMT

Popularity

Hub Current Bids PiReps this month Total PiReps
KMCI 0 0 7
KLAX 0 0 7
KBOS 0 0 0